createdAt,value
2022-07-29T00:00:52.207Z,9.757457
2022-07-29T00:01:52.166Z,9.757547
2022-07-29T00:02:52.243Z,9.757525
2022-07-29T00:03:52.200Z,9.757472
2022-07-29T00:04:52.133Z,9.757445
2022-07-29T00:05:52.165Z,9.757499
2022-07-29T00:06:52.124Z,9.757440
2022-07-29T00:07:52.120Z,9.757384
2022-07-29T00:08:52.106Z,9.757414
2022-07-29T00:09:52.746Z,9.757438
2022-07-29T00:10:53.123Z,9.757374
2022-07-29T00:11:52.077Z,9.757328
2022-07-29T00:12:52.075Z,9.757403
2022-07-29T00:13:52.060Z,9.757416
2022-07-29T00:14:52.053Z,9.757411
2022-07-29T00:15:52.086Z,9.757410
2022-07-29T00:16:52.111Z,9.757425
2022-07-29T00:17:52.024Z,9.757405
2022-07-29T00:18:52.020Z,9.757412
2022-07-29T00:19:52.012Z,9.757453
2022-07-29T00:20:52.038Z,9.757408
2022-07-29T00:21:51.989Z,9.757469
2022-07-29T00:22:51.992Z,9.757402
2022-07-29T00:23:51.969Z,9.757451
2022-07-29T00:24:51.968Z,9.757382
2022-07-29T00:25:51.957Z,9.757441
2022-07-29T00:26:51.983Z,9.757417
2022-07-29T00:27:51.950Z,9.757432
2022-07-29T00:28:51.953Z,9.757385
2022-07-29T00:29:51.925Z,9.757374
2022-07-29T00:30:51.934Z,9.757395
2022-07-29T00:31:52.004Z,9.757462
2022-07-29T00:32:51.900Z,9.757431
2022-07-29T00:33:51.892Z,9.757396
2022-07-29T00:34:51.888Z,9.757527
2022-07-29T00:35:51.887Z,9.757386
2022-07-29T00:36:51.893Z,9.757377
2022-07-29T00:37:51.868Z,9.757433
2022-07-29T00:38:51.852Z,9.757531
2022-07-29T00:39:51.839Z,9.757548
2022-07-29T00:40:51.866Z,9.757446
2022-07-29T00:41:51.863Z,9.757422
2022-07-29T00:42:51.831Z,9.757454
2022-07-29T00:43:51.808Z,9.757486
2022-07-29T00:44:51.809Z,9.757389
2022-07-29T00:45:51.788Z,9.757425
2022-07-29T00:46:51.863Z,9.757560
2022-07-29T00:47:51.776Z,9.757456
2022-07-29T00:48:51.822Z,9.757427
2022-07-29T00:49:51.765Z,9.757424
2022-07-29T00:50:51.758Z,9.757427
2022-07-29T00:51:51.783Z,9.757433
2022-07-29T00:52:51.729Z,9.757382
2022-07-29T00:53:51.723Z,9.757431
2022-07-29T00:54:51.715Z,9.757401
2022-07-29T00:55:51.706Z,9.757313
2022-07-29T00:56:51.733Z,9.757360
2022-07-29T00:57:51.695Z,9.757490
2022-07-29T00:58:51.682Z,9.757473
2022-07-29T00:59:51.677Z,9.757414
2022-07-29T01:00:51.742Z,9.757416
2022-07-29T01:01:51.890Z,9.757510
2022-07-29T01:02:51.666Z,9.757502
2022-07-29T01:03:51.644Z,9.757409
2022-07-29T01:04:51.629Z,9.757405
2022-07-29T01:05:52.048Z,9.757490
2022-07-29T01:06:52.648Z,9.757499
2022-07-29T01:07:51.589Z,9.757457
2022-07-29T01:08:52.597Z,9.757481
2022-07-29T01:09:51.597Z,9.757627
2022-07-29T01:10:51.578Z,9.757552
2022-07-29T01:11:51.598Z,9.757553
2022-07-29T01:12:51.579Z,9.757483
2022-07-29T01:13:51.560Z,9.757668
2022-07-29T01:14:51.555Z,9.757640
2022-07-29T01:15:51.643Z,9.757517
2022-07-29T01:16:51.561Z,9.757474
2022-07-29T01:17:53.479Z,9.757462
2022-07-29T01:18:51.515Z,9.757536
2022-07-29T01:19:51.504Z,9.757510
2022-07-29T01:20:51.503Z,9.757354
2022-07-29T01:21:51.531Z,9.757269
2022-07-29T01:22:51.483Z,9.757269
2022-07-29T01:23:51.474Z,9.757310
2022-07-29T01:24:51.466Z,9.757412
2022-07-29T01:25:55.940Z,9.757513
2022-07-29T01:26:51.481Z,9.757354
2022-07-29T01:27:51.446Z,9.757379
2022-07-29T01:28:51.434Z,9.757265
2022-07-29T01:29:51.426Z,9.757493
2022-07-29T01:30:51.424Z,9.757489
2022-07-29T01:31:59.477Z,9.757547
2022-07-29T01:32:52.410Z,9.757584
2022-07-29T01:33:51.403Z,9.757614
2022-07-29T01:34:51.385Z,9.757574
2022-07-29T01:35:51.379Z,9.757607
2022-07-29T01:36:51.431Z,9.757511
2022-07-29T01:37:51.358Z,9.757432
2022-07-29T01:38:51.354Z,9.757446
2022-07-29T01:39:51.344Z,9.757503
2022-07-29T01:40:51.338Z,9.757792
2022-07-29T01:41:51.352Z,9.757572
2022-07-29T01:42:51.321Z,9.757500
2022-07-29T01:43:51.312Z,9.757629
2022-07-29T01:44:51.309Z,9.757554
2022-07-29T01:45:51.287Z,9.757443
2022-07-29T01:46:51.436Z,9.757569
2022-07-29T01:47:51.285Z,9.757544
2022-07-29T01:48:51.329Z,9.757570
2022-07-29T01:49:51.257Z,9.757528
2022-07-29T01:50:51.250Z,9.757565
2022-07-29T01:51:51.266Z,9.757423
2022-07-29T01:52:51.240Z,9.757661
2022-07-29T01:53:51.225Z,9.757855
2022-07-29T01:54:51.220Z,9.757756
2022-07-29T01:55:51.214Z,9.757565
2022-07-29T01:56:51.222Z,9.757775
2022-07-29T01:57:51.193Z,9.757792
2022-07-29T01:58:51.179Z,9.757747
2022-07-29T01:59:51.174Z,9.757594
2022-07-29T02:00:51.180Z,9.757408
2022-07-29T02:01:51.217Z,9.757311
2022-07-29T02:02:51.137Z,9.757388
2022-07-29T02:03:52.138Z,9.757563
2022-07-29T02:04:51.164Z,9.757668
2022-07-29T02:05:51.118Z,9.757646
2022-07-29T02:06:52.140Z,9.757656
2022-07-29T02:07:51.105Z,9.757525
2022-07-29T02:08:51.097Z,9.757659
2022-07-29T02:09:51.097Z,9.757579
2022-07-29T02:10:51.085Z,9.757637
2022-07-29T02:11:51.110Z,9.757615
2022-07-29T02:12:51.159Z,9.757496
2022-07-29T02:13:51.062Z,9.757616
2022-07-29T02:14:51.050Z,9.757565
2022-07-29T02:15:51.139Z,9.757663
2022-07-29T02:16:51.074Z,9.757595
2022-07-29T02:17:51.033Z,9.757602
2022-07-29T02:18:51.018Z,9.757619
2022-07-29T02:19:51.013Z,9.757582
2022-07-29T02:20:51.015Z,9.757520
2022-07-29T02:21:51.020Z,9.757519
2022-07-29T02:22:50.981Z,9.757483
2022-07-29T02:23:51.814Z,9.757507
2022-07-29T02:24:50.964Z,9.757521
2022-07-29T02:25:50.954Z,9.757528
2022-07-29T02:26:50.959Z,9.757624
2022-07-29T02:27:50.969Z,9.757603
2022-07-29T02:28:50.935Z,9.757541
2022-07-29T02:29:50.922Z,9.757650
2022-07-29T02:30:51.993Z,9.757557
2022-07-29T02:31:50.905Z,9.757526
2022-07-29T02:32:50.931Z,9.757467
2022-07-29T02:33:50.891Z,9.757558
2022-07-29T02:34:50.894Z,9.757441
2022-07-29T02:35:50.855Z,9.757438
2022-07-29T02:36:51.855Z,9.757472
2022-07-29T02:37:50.871Z,9.757522
2022-07-29T02:38:51.841Z,9.757497
2022-07-29T02:39:50.840Z,9.757464
2022-07-29T02:40:50.825Z,9.757529
2022-07-29T02:41:50.818Z,9.757589
2022-07-29T02:42:50.843Z,9.757527
2022-07-29T02:43:50.804Z,9.757565
2022-07-29T02:44:50.796Z,9.757593
2022-07-29T02:45:51.901Z,9.757656
2022-07-29T02:46:50.799Z,9.757585
2022-07-29T02:47:50.808Z,9.757682
2022-07-29T02:48:50.865Z,9.757586
2022-07-29T02:49:50.753Z,9.757557
2022-07-29T02:50:50.742Z,9.757524
2022-07-29T02:51:50.735Z,9.757538
2022-07-29T02:52:50.762Z,9.757517
2022-07-29T02:53:50.722Z,9.757539
2022-07-29T02:54:50.722Z,9.757462
2022-07-29T02:55:50.709Z,9.757448
2022-07-29T02:56:50.697Z,9.757547
2022-07-29T02:57:54.502Z,9.757484
2022-07-29T02:58:50.677Z,9.757575
2022-07-29T02:59:50.675Z,9.757573
2022-07-29T03:00:50.666Z,9.757401
2022-07-29T03:01:50.698Z,9.757404
2022-07-29T03:02:50.684Z,9.757526
2022-07-29T03:03:50.634Z,9.757707
2022-07-29T03:04:50.658Z,9.757577
2022-07-29T03:05:50.624Z,9.757561
2022-07-29T03:06:50.630Z,9.757736
2022-07-29T03:07:50.640Z,9.757680
2022-07-29T03:08:50.599Z,9.757748
2022-07-29T03:09:50.590Z,9.757663
2022-07-29T03:10:50.584Z,9.757691
2022-07-29T03:11:51.119Z,9.757801
2022-07-29T03:12:51.594Z,9.757621
2022-07-29T03:13:50.559Z,9.757448
2022-07-29T03:14:50.548Z,9.757470
2022-07-29T03:15:50.653Z,9.757529
2022-07-29T03:16:50.542Z,9.757499
2022-07-29T03:17:50.556Z,9.757584
2022-07-29T03:18:50.519Z,9.757539
2022-07-29T03:19:50.510Z,9.757515
2022-07-29T03:20:50.490Z,9.757587
2022-07-29T03:21:50.491Z,9.757691
2022-07-29T03:22:50.514Z,9.757475
2022-07-29T03:23:50.477Z,9.757451
2022-07-29T03:24:50.460Z,9.757484
2022-07-29T03:25:50.452Z,9.757555
2022-07-29T03:26:50.447Z,9.757516
2022-07-29T03:27:50.478Z,9.757709
2022-07-29T03:28:50.432Z,9.757599
2022-07-29T03:29:50.595Z,9.757276
2022-07-29T03:30:50.459Z,9.757379
2022-07-29T03:31:50.431Z,9.757514
2022-07-29T03:32:52.122Z,9.757465
2022-07-29T03:33:50.383Z,9.757488
2022-07-29T03:34:50.377Z,9.757560
2022-07-29T03:35:50.371Z,9.757541
2022-07-29T03:36:50.368Z,9.757348
2022-07-29T03:37:50.387Z,9.757463
2022-07-29T03:38:50.351Z,9.757457
2022-07-29T03:39:50.336Z,9.757507
2022-07-29T03:40:50.340Z,9.757501
2022-07-29T03:41:50.318Z,9.757693
2022-07-29T03:42:50.346Z,9.757557
2022-07-29T03:43:50.304Z,9.757482
2022-07-29T03:44:50.295Z,9.757446
2022-07-29T03:45:50.284Z,9.757473
2022-07-29T03:46:50.329Z,9.757499
2022-07-29T03:47:52.894Z,9.757483
2022-07-29T03:48:50.293Z,9.757455
2022-07-29T03:49:50.249Z,9.757478
2022-07-29T03:50:50.253Z,9.757436
2022-07-29T03:51:50.239Z,9.757486
2022-07-29T03:52:50.264Z,9.757492
2022-07-29T03:53:50.219Z,9.757413
2022-07-29T03:54:50.206Z,9.757464
2022-07-29T03:55:50.201Z,9.757443
2022-07-29T03:56:50.189Z,9.757419
2022-07-29T03:57:50.208Z,9.757408
2022-07-29T03:58:50.178Z,9.757409
2022-07-29T03:59:50.168Z,9.757442
2022-07-29T04:00:50.168Z,9.757428
2022-07-29T04:01:50.229Z,9.757485
2022-07-29T04:02:50.319Z,9.757458
2022-07-29T04:03:50.192Z,9.757453
2022-07-29T04:04:50.137Z,9.757422
2022-07-29T04:05:50.121Z,9.757407
2022-07-29T04:06:50.105Z,9.757517
2022-07-29T04:07:50.141Z,9.757533
2022-07-29T04:08:50.077Z,9.757556
2022-07-29T04:09:51.081Z,9.757557
2022-07-29T04:10:50.076Z,9.757588
2022-07-29T04:11:59.134Z,9.757592
2022-07-29T04:12:51.100Z,9.757516
2022-07-29T04:13:50.068Z,9.757490
2022-07-29T04:14:50.047Z,9.757566
2022-07-29T04:15:50.090Z,9.757751
2022-07-29T04:16:50.028Z,9.757720
2022-07-29T04:17:50.048Z,9.757528
2022-07-29T04:18:50.016Z,9.757534
2022-07-29T04:19:50.013Z,9.757470
2022-07-29T04:20:49.992Z,9.757445
2022-07-29T04:21:49.976Z,9.757528
2022-07-29T04:22:50.011Z,9.757598
2022-07-29T04:23:53.184Z,9.757566
2022-07-29T04:24:49.957Z,9.757475
2022-07-29T04:25:49.959Z,9.757532
2022-07-29T04:26:49.955Z,9.757456
2022-07-29T04:27:49.965Z,9.757527
2022-07-29T04:28:49.929Z,9.757544
2022-07-29T04:29:56.819Z,9.757486
2022-07-29T04:30:50.986Z,9.757517
2022-07-29T04:31:49.901Z,9.757521
2022-07-29T04:32:49.923Z,9.757508
2022-07-29T04:33:49.882Z,9.757508
2022-07-29T04:34:49.870Z,9.757517
2022-07-29T04:35:52.381Z,9.757513
2022-07-29T04:36:49.861Z,9.757504
2022-07-29T04:37:49.883Z,9.757518
2022-07-29T04:38:49.835Z,9.757447
2022-07-29T04:39:49.836Z,9.757466
2022-07-29T04:40:49.986Z,9.757534
2022-07-29T04:41:49.817Z,9.757540
2022-07-29T04:42:49.842Z,9.757540
2022-07-29T04:43:49.805Z,9.757647
2022-07-29T04:44:49.790Z,9.757606
2022-07-29T04:45:49.794Z,9.757577
2022-07-29T04:46:49.866Z,9.757543
2022-07-29T04:47:49.798Z,9.757539
2022-07-29T04:48:49.786Z,9.757515
2022-07-29T04:49:50.744Z,9.757506
2022-07-29T04:50:49.744Z,9.757504
2022-07-29T04:51:49.734Z,9.757489
2022-07-29T04:52:49.754Z,9.757568
2022-07-29T04:53:49.709Z,9.757536
2022-07-29T04:54:49.711Z,9.757515
2022-07-29T04:55:49.698Z,9.757489
2022-07-29T04:56:49.697Z,9.757430
2022-07-29T04:57:49.714Z,9.757484
2022-07-29T04:58:49.672Z,9.757521
2022-07-29T04:59:49.671Z,9.757543
2022-07-29T05:00:49.667Z,9.757516
2022-07-29T05:01:49.692Z,9.757538
2022-07-29T05:02:49.764Z,9.757524
2022-07-29T05:03:49.677Z,9.757471
2022-07-29T05:04:49.627Z,9.757448
2022-07-29T05:05:49.619Z,9.757408
2022-07-29T05:06:49.614Z,9.757270
2022-07-29T05:07:49.639Z,9.757433
2022-07-29T05:08:49.595Z,9.757430
2022-07-29T05:09:49.580Z,9.757496
2022-07-29T05:10:49.575Z,9.757368
2022-07-29T05:11:49.570Z,9.757397
2022-07-29T05:12:49.589Z,9.757379
2022-07-29T05:13:49.543Z,9.757339
2022-07-29T05:14:49.543Z,9.757511
2022-07-29T05:15:49.571Z,9.757578
2022-07-29T05:16:49.532Z,9.757463
2022-07-29T05:17:49.551Z,9.757440
2022-07-29T05:18:50.509Z,9.757417
2022-07-29T05:19:49.499Z,9.757447
2022-07-29T05:20:49.500Z,9.757392
2022-07-29T05:21:49.486Z,9.757388
2022-07-29T05:22:49.513Z,9.757389
2022-07-29T05:23:49.472Z,9.757420
2022-07-29T05:24:49.454Z,9.757373
2022-07-29T05:25:49.452Z,9.757325
2022-07-29T05:26:49.441Z,9.757372
2022-07-29T05:27:49.441Z,9.757385
2022-07-29T05:28:49.477Z,9.757446
2022-07-29T05:29:49.425Z,9.757467
2022-07-29T05:30:49.474Z,9.757454
2022-07-29T05:31:49.398Z,9.757401
2022-07-29T05:32:49.389Z,9.757465
2022-07-29T05:33:49.434Z,9.757498
2022-07-29T05:34:50.738Z,9.757515
2022-07-29T05:35:49.371Z,9.757483
2022-07-29T05:36:49.371Z,9.757469
2022-07-29T05:37:49.356Z,9.757378
2022-07-29T05:38:49.367Z,9.757416
2022-07-29T05:39:56.315Z,9.757488
2022-07-29T05:40:50.329Z,9.757527
2022-07-29T05:41:51.944Z,9.757483
2022-07-29T05:42:50.317Z,9.757468
2022-07-29T05:43:49.315Z,9.757510
2022-07-29T05:44:50.296Z,9.757455
2022-07-29T05:45:50.526Z,9.757470
2022-07-29T05:46:49.364Z,9.757646
2022-07-29T05:47:49.263Z,9.757621
2022-07-29T05:48:49.331Z,9.757554
2022-07-29T05:49:49.244Z,9.757412
2022-07-29T05:50:49.245Z,9.757405
2022-07-29T05:51:49.250Z,9.757502
2022-07-29T05:52:49.231Z,9.757425
2022-07-29T05:53:49.240Z,9.757582
2022-07-29T05:54:49.223Z,9.757562
2022-07-29T05:55:49.220Z,9.757569
2022-07-29T05:56:49.192Z,9.757474
2022-07-29T05:57:49.182Z,9.757539
2022-07-29T05:58:49.200Z,9.757401
2022-07-29T05:59:49.175Z,9.757134
2022-07-29T06:00:49.184Z,9.757412
2022-07-29T06:01:49.238Z,9.757495
2022-07-29T06:02:49.170Z,9.757527
2022-07-29T06:03:49.178Z,9.757501
2022-07-29T06:04:49.149Z,9.757574
2022-07-29T06:05:49.113Z,9.757543
2022-07-29T06:06:49.106Z,9.757442
2022-07-29T06:07:50.199Z,9.757523
2022-07-29T06:08:49.121Z,9.757548
2022-07-29T06:09:49.148Z,9.757567
2022-07-29T06:10:49.172Z,9.757466
2022-07-29T06:11:49.061Z,9.757553
2022-07-29T06:12:49.060Z,9.757483
2022-07-29T06:13:49.072Z,9.757484
2022-07-29T06:14:53.912Z,9.757657
2022-07-29T06:15:51.070Z,9.757588
2022-07-29T06:16:49.130Z,9.757409
2022-07-29T06:18:00.702Z,9.757540
2022-07-29T06:18:50.028Z,9.757583
2022-07-29T06:19:48.995Z,9.757581
2022-07-29T06:20:48.982Z,9.757416
2022-07-29T06:21:49.000Z,9.757601
2022-07-29T06:22:48.983Z,9.757632
2022-07-29T06:23:48.999Z,9.757563
2022-07-29T06:24:48.970Z,9.757608
2022-07-29T06:25:48.948Z,9.757616
2022-07-29T06:26:48.936Z,9.757518
2022-07-29T06:27:48.931Z,9.757621
2022-07-29T06:28:48.949Z,9.757574
2022-07-29T06:29:48.919Z,9.757448
2022-07-29T06:30:48.951Z,9.757444
2022-07-29T06:31:48.896Z,9.757616
2022-07-29T06:32:48.897Z,9.757606
2022-07-29T06:33:48.914Z,9.757592
2022-07-29T06:34:49.065Z,9.757493
2022-07-29T06:35:54.988Z,9.757561
2022-07-29T06:36:49.858Z,9.757688
2022-07-29T06:37:48.914Z,9.758089
2022-07-29T06:38:51.312Z,9.757677
2022-07-29T06:39:49.836Z,9.757637
2022-07-29T06:40:48.820Z,9.757749
2022-07-29T06:41:48.815Z,9.757761
2022-07-29T06:42:49.805Z,9.757921
2022-07-29T06:43:52.556Z,9.757594
2022-07-29T06:44:49.791Z,9.757909
2022-07-29T06:45:48.870Z,9.757569
2022-07-29T06:46:48.774Z,9.757722
2022-07-29T06:47:48.762Z,9.757593
2022-07-29T06:48:48.997Z,9.757438
2022-07-29T06:49:48.749Z,9.757431
2022-07-29T06:50:48.741Z,9.757597
2022-07-29T06:51:48.740Z,9.757474
2022-07-29T06:52:48.720Z,9.757515
2022-07-29T06:54:00.194Z,9.757615
2022-07-29T06:54:49.704Z,9.757603
2022-07-29T06:55:48.696Z,9.757681
2022-07-29T06:56:48.697Z,9.757602
2022-07-29T06:57:48.687Z,9.757573
2022-07-29T06:58:48.672Z,9.757688
2022-07-29T06:59:48.689Z,9.757615
2022-07-29T07:00:48.762Z,9.757489
2022-07-29T07:01:48.714Z,9.757585
2022-07-29T07:02:48.690Z,9.757598
2022-07-29T07:03:48.621Z,9.757561
2022-07-29T07:04:48.653Z,9.757539
2022-07-29T07:05:48.606Z,9.757451
2022-07-29T07:06:48.602Z,9.757543
2022-07-29T07:07:48.603Z,9.757564
2022-07-29T07:08:48.584Z,9.757492
2022-07-29T07:09:48.607Z,9.757644
2022-07-29T07:10:48.577Z,9.757874
2022-07-29T07:11:49.720Z,9.758054
2022-07-29T07:12:48.546Z,9.757970
2022-07-29T07:13:48.541Z,9.757869
2022-07-29T07:14:48.565Z,9.758126
2022-07-29T07:15:48.525Z,9.757895
2022-07-29T07:16:49.552Z,9.757926
2022-07-29T07:17:48.507Z,9.757730
2022-07-29T07:18:48.502Z,9.757545
2022-07-29T07:19:48.526Z,9.757563
2022-07-29T07:20:48.480Z,9.757368
2022-07-29T07:21:48.470Z,9.757170
2022-07-29T07:22:48.487Z,9.757315
2022-07-29T07:23:48.459Z,9.757347
2022-07-29T07:24:48.481Z,9.757607
2022-07-29T07:25:48.443Z,9.757637
2022-07-29T07:26:48.428Z,9.757609
2022-07-29T07:27:48.425Z,9.757426
2022-07-29T07:28:48.417Z,9.757261
2022-07-29T07:29:48.440Z,9.757285
2022-07-29T07:30:48.402Z,9.757483
2022-07-29T07:31:48.434Z,9.757598
2022-07-29T07:32:48.378Z,9.757526
2022-07-29T07:33:48.370Z,9.757245
2022-07-29T07:34:48.403Z,9.757401
2022-07-29T07:35:48.354Z,9.757359
2022-07-29T07:36:48.352Z,9.757432
2022-07-29T07:37:48.337Z,9.757398
2022-07-29T07:38:48.330Z,9.757349
2022-07-29T07:39:48.358Z,9.757410
2022-07-29T07:40:48.318Z,9.757419
2022-07-29T07:41:48.307Z,9.757478
2022-07-29T07:42:48.301Z,9.757451
2022-07-29T07:43:48.307Z,9.757464
2022-07-29T07:45:12.118Z,9.757450
2022-07-29T07:45:50.306Z,9.757446
2022-07-29T07:46:48.263Z,9.757429
2022-07-29T07:47:48.251Z,9.757370
2022-07-29T07:48:48.299Z,9.757359
2022-07-29T07:49:48.267Z,9.757650
2022-07-29T07:50:48.228Z,9.757377
2022-07-29T07:51:50.821Z,9.757282
2022-07-29T07:52:48.209Z,9.757459
2022-07-29T07:53:48.205Z,9.757432
2022-07-29T07:54:48.236Z,9.757486
2022-07-29T07:56:09.353Z,9.757448
2022-07-29T07:56:53.142Z,9.757849
2022-07-29T07:57:48.178Z,9.757716
2022-07-29T07:58:48.167Z,9.757224
2022-07-29T07:59:48.193Z,9.757523
2022-07-29T08:00:48.175Z,9.757509
2022-07-29T08:01:56.217Z,9.757517
2022-07-29T08:02:49.201Z,9.757702
2022-07-29T08:03:48.117Z,9.757545
2022-07-29T08:04:48.147Z,9.757563
2022-07-29T08:05:48.106Z,9.757602
2022-07-29T08:06:48.097Z,9.757610
2022-07-29T08:07:48.100Z,9.757422
2022-07-29T08:08:48.078Z,9.757334
2022-07-29T08:09:48.103Z,9.757325
2022-07-29T08:10:48.117Z,9.757367
2022-07-29T08:11:52.179Z,9.757514
2022-07-29T08:12:48.053Z,9.757466
2022-07-29T08:13:48.036Z,9.757308
2022-07-29T08:14:48.056Z,9.757425
2022-07-29T08:15:48.013Z,9.757502
2022-07-29T08:16:48.053Z,9.757510
2022-07-29T08:17:48.014Z,9.757438
2022-07-29T08:18:48.017Z,9.757370
2022-07-29T08:19:48.029Z,9.757405
2022-07-29T08:20:47.984Z,9.757436
2022-07-29T08:21:47.975Z,9.757401
2022-07-29T08:22:47.965Z,9.757528
2022-07-29T08:23:52.705Z,9.757501
2022-07-29T08:24:49.989Z,9.757496
2022-07-29T08:25:50.358Z,9.757515
2022-07-29T08:26:47.933Z,9.757452
2022-07-29T08:27:47.919Z,9.757479
2022-07-29T08:28:47.921Z,9.757504
2022-07-29T08:29:47.929Z,9.757535
2022-07-29T08:30:47.900Z,9.757501
2022-07-29T08:31:47.929Z,9.757442
2022-07-29T08:32:56.057Z,9.757429
2022-07-29T08:33:49.868Z,9.757470
2022-07-29T08:34:47.898Z,9.757522
2022-07-29T08:35:47.872Z,9.757542
2022-07-29T08:36:50.841Z,9.757512
2022-07-29T08:37:47.837Z,9.757478
2022-07-29T08:38:47.827Z,9.757490
2022-07-29T08:39:47.857Z,9.757451
2022-07-29T08:40:47.825Z,9.757526
2022-07-29T08:41:56.612Z,9.757536
2022-07-29T08:42:49.796Z,9.757601
2022-07-29T08:43:47.789Z,9.757604
2022-07-29T08:44:47.816Z,9.757659
2022-07-29T08:45:48.651Z,9.757566
2022-07-29T08:46:47.756Z,9.757609
2022-07-29T08:47:48.801Z,9.757600
2022-07-29T08:48:47.803Z,9.757524
2022-07-29T08:49:47.730Z,9.757390
2022-07-29T08:50:48.767Z,9.757512
2022-07-29T08:51:49.630Z,9.757520
2022-07-29T08:52:47.716Z,9.757529
2022-07-29T08:53:47.718Z,9.757479
2022-07-29T08:54:47.686Z,9.757500
2022-07-29T08:55:48.726Z,9.757636
2022-07-29T08:56:47.681Z,9.757482
2022-07-29T08:57:53.419Z,9.757436
2022-07-29T08:58:49.886Z,9.757362
2022-07-29T08:59:47.662Z,9.757301
2022-07-29T09:00:48.618Z,9.757393
2022-07-29T09:01:47.800Z,9.757404
2022-07-29T09:02:47.634Z,9.757444
2022-07-29T09:03:47.655Z,9.757552
2022-07-29T09:04:47.625Z,9.757487
2022-07-29T09:05:48.273Z,9.757468
2022-07-29T09:06:48.606Z,9.757524
2022-07-29T09:07:47.669Z,9.757461
2022-07-29T09:08:47.585Z,9.757400
2022-07-29T09:09:47.579Z,9.757419
2022-07-29T09:10:47.600Z,9.757463
2022-07-29T09:11:47.574Z,9.757427
2022-07-29T09:12:47.561Z,9.757485
2022-07-29T09:13:47.548Z,9.757596
2022-07-29T09:14:47.543Z,9.757455
2022-07-29T09:15:47.588Z,9.757478
2022-07-29T09:16:53.157Z,9.757415
2022-07-29T09:17:49.518Z,9.757451
2022-07-29T09:18:47.509Z,9.757395
2022-07-29T09:19:47.514Z,9.757383
2022-07-29T09:20:47.524Z,9.757460
2022-07-29T09:21:47.470Z,9.757478
2022-07-29T09:22:48.486Z,9.757447
2022-07-29T09:23:47.471Z,9.757565
2022-07-29T09:24:47.470Z,9.757323
2022-07-29T09:25:47.475Z,9.757599
2022-07-29T09:26:47.451Z,9.757485
2022-07-29T09:27:47.433Z,9.757526
2022-07-29T09:28:47.516Z,9.757449
2022-07-29T09:29:47.419Z,9.757470
2022-07-29T09:30:47.442Z,9.757454
2022-07-29T09:31:47.492Z,9.757426
2022-07-29T09:32:47.398Z,9.757170
2022-07-29T09:33:47.387Z,9.757004
2022-07-29T09:34:47.382Z,9.757278
2022-07-29T09:35:57.023Z,9.757230
2022-07-29T09:36:48.408Z,9.757239
2022-07-29T09:37:47.359Z,9.757357
2022-07-29T09:38:47.351Z,9.757421
2022-07-29T09:39:47.367Z,9.757121
2022-07-29T09:40:47.325Z,9.757172
2022-07-29T09:41:47.358Z,9.757201
2022-07-29T09:42:47.310Z,9.757347
2022-07-29T09:43:47.311Z,9.757479
2022-07-29T09:44:47.302Z,9.757494
2022-07-29T09:45:47.289Z,9.757569
2022-07-29T09:46:47.355Z,9.757571
2022-07-29T09:47:47.274Z,9.757168
2022-07-29T09:48:47.315Z,9.757277
2022-07-29T09:49:47.287Z,9.757368
2022-07-29T09:50:47.253Z,9.757333
2022-07-29T09:51:47.269Z,9.757619
2022-07-29T09:52:47.237Z,9.757522
2022-07-29T09:53:47.232Z,9.757508
2022-07-29T09:54:47.220Z,9.757403
2022-07-29T09:55:47.212Z,9.757402
2022-07-29T09:56:47.234Z,9.757397
2022-07-29T09:57:47.191Z,9.757384
2022-07-29T09:58:47.187Z,9.757476
2022-07-29T09:59:50.328Z,9.757366
2022-07-29T10:00:47.213Z,9.757389
2022-07-29T10:01:47.209Z,9.757459
2022-07-29T10:02:47.164Z,9.757436
2022-07-29T10:03:47.213Z,9.757333
2022-07-29T10:04:47.144Z,9.757455
2022-07-29T10:05:47.138Z,9.757513
2022-07-29T10:06:47.174Z,9.757447
2022-07-29T10:07:50.591Z,9.757518
2022-07-29T10:08:49.119Z,9.757552
2022-07-29T10:09:47.111Z,9.757576
2022-07-29T10:10:47.092Z,9.757634
2022-07-29T10:11:49.874Z,9.757613
2022-07-29T10:12:48.075Z,9.757545
2022-07-29T10:13:47.072Z,9.757556
2022-07-29T10:14:47.069Z,9.757641
2022-07-29T10:15:47.131Z,9.757545
2022-07-29T10:16:47.166Z,9.757516
2022-07-29T10:17:47.036Z,9.757527
2022-07-29T10:18:47.040Z,9.757489
2022-07-29T10:19:47.039Z,9.757637
2022-07-29T10:20:47.026Z,9.757726
2022-07-29T10:21:47.054Z,9.757876
2022-07-29T10:22:54.479Z,9.758123
2022-07-29T10:23:48.992Z,9.758578
2022-07-29T10:24:46.992Z,9.758523
2022-07-29T10:25:46.980Z,9.758007
2022-07-29T10:26:47.015Z,9.757803
2022-07-29T10:27:46.961Z,9.758262
2022-07-29T10:28:46.970Z,9.757844
2022-07-29T10:29:46.950Z,9.757524
2022-07-29T10:30:46.944Z,9.757963
2022-07-29T10:31:47.004Z,9.757833
2022-07-29T10:32:49.209Z,9.758048
2022-07-29T10:33:47.928Z,9.758131
2022-07-29T10:34:46.925Z,9.757858
2022-07-29T10:35:46.925Z,9.757862
2022-07-29T10:36:46.928Z,9.757864
2022-07-29T10:37:46.893Z,9.758033
2022-07-29T10:38:48.095Z,9.757921
2022-07-29T10:39:49.631Z,9.757729
2022-07-29T10:40:46.864Z,9.757886
2022-07-29T10:41:46.891Z,9.757840
2022-07-29T10:42:46.850Z,9.758143
2022-07-29T10:43:46.839Z,9.758327
2022-07-29T10:44:46.833Z,9.757803
2022-07-29T10:45:46.829Z,9.757572
2022-07-29T10:46:46.952Z,9.757535
2022-07-29T10:47:46.809Z,9.757511
2022-07-29T10:48:46.839Z,9.757616
2022-07-29T10:49:46.801Z,9.757690
2022-07-29T10:50:46.801Z,9.757626
2022-07-29T10:51:46.824Z,9.757723
2022-07-29T10:52:46.772Z,9.757628
2022-07-29T10:53:46.767Z,9.757547
2022-07-29T10:54:46.749Z,9.757515
2022-07-29T10:55:47.791Z,9.757571
2022-07-29T10:56:46.776Z,9.757543
2022-07-29T10:58:52.726Z,9.757756
2022-07-29T10:59:47.715Z,9.757771
2022-07-29T11:00:46.707Z,9.757703
2022-07-29T11:01:49.295Z,9.757812
2022-07-29T11:02:47.048Z,9.757896
2022-07-29T11:03:49.408Z,9.757752
2022-07-29T11:04:46.973Z,9.757640
2022-07-29T11:05:46.693Z,9.757571
2022-07-29T11:06:47.657Z,9.757526
2022-07-29T11:07:46.674Z,9.757600
2022-07-29T11:08:47.010Z,9.757568
2022-07-29T11:09:46.673Z,9.757574
2022-07-29T11:10:46.628Z,9.757524
2022-07-29T11:11:51.289Z,9.757557
2022-07-29T11:12:47.654Z,9.757651
2022-07-29T11:13:46.674Z,9.757674
2022-07-29T11:14:46.611Z,9.757759
2022-07-29T11:15:46.603Z,9.757810
2022-07-29T11:16:46.619Z,9.757731
2022-07-29T11:17:52.031Z,9.757643
2022-07-29T11:18:47.573Z,9.757690
2022-07-29T11:19:51.931Z,9.757483
2022-07-29T11:20:49.848Z,9.757418
2022-07-29T11:21:53.647Z,9.757462
2022-07-29T11:22:47.574Z,9.757407
2022-07-29T11:23:46.531Z,9.757407
2022-07-29T11:24:49.368Z,9.757387
2022-07-29T11:25:50.679Z,9.757430
2022-07-29T11:26:47.501Z,9.757416
2022-07-29T11:27:46.543Z,9.757401
2022-07-29T11:28:46.505Z,9.757481
2022-07-29T11:29:46.485Z,9.757472
2022-07-29T11:30:46.586Z,9.757454
2022-07-29T11:31:46.484Z,9.757418
2022-07-29T11:32:48.688Z,9.757432
2022-07-29T11:33:54.501Z,9.757446
2022-07-29T11:34:47.453Z,9.757435
2022-07-29T11:35:46.484Z,9.757422
2022-07-29T11:36:47.428Z,9.757460
2022-07-29T11:37:52.466Z,9.757552
2022-07-29T11:38:47.416Z,9.757398
2022-07-29T11:39:46.412Z,9.757655
2022-07-29T11:40:46.397Z,9.757509
2022-07-29T11:41:47.391Z,9.757405
2022-07-29T11:42:46.415Z,9.757513
2022-07-29T11:43:46.380Z,9.757481
2022-07-29T11:44:46.373Z,9.757546
2022-07-29T11:45:46.361Z,9.757669